sensor_id;sensor_type;location;lat;lon;timestamp;pressure;altitude;pressure_sealevel;temperature;humidity
57234;BME280;43090;52.604;13.318;2024-03-17T00:01:04;101573.44;;;4.70;78.41
57234;BME280;43090;52.604;13.318;2024-03-17T00:03:30;101540.47;;;4.52;80.17
57234;BME280;43090;52.604;13.318;2024-03-17T00:05:57;101573.84;;;4.84;79.26
57234;BME280;43090;52.604;13.318;2024-03-17T00:08:24;101572.84;;;4.61;78.89
57234;BME280;43090;52.604;13.318;2024-03-17T00:10:50;101539.38;;;4.57;78.24
57234;BME280;43090;52.604;13.318;2024-03-17T00:13:16;101563.84;;;4.65;78.51
57234;BME280;43090;52.604;13.318;2024-03-17T00:15:42;101550.19;;;4.51;78.74
57234;BME280;43090;52.604;13.318;2024-03-17T00:18:09;101545.56;;;4.58;80.01
57234;BME280;43090;52.604;13.318;2024-03-17T00:20:35;101570.91;;;4.66;78.83
57234;BME280;43090;52.604;13.318;2024-03-17T00:23:01;101583.44;;;4.61;80.95
57234;BME280;43090;52.604;13.318;2024-03-17T00:25:27;101553.59;;;4.55;79.79
57234;BME280;43090;52.604;13.318;2024-03-17T00:27:52;101569.09;;;4.69;78.77
57234;BME280;43090;52.604;13.318;2024-03-17T00:30:20;101571.88;;;4.64;79.17
57234;BME280;43090;52.604;13.318;2024-03-17T00:32:46;101586.63;;;4.44;79.45
57234;BME280;43090;52.604;13.318;2024-03-17T00:35:12;101588.00;;;4.58;78.61
57234;BME280;43090;52.604;13.318;2024-03-17T00:37:39;101576.38;;;4.62;78.38
57234;BME280;43090;52.604;13.318;2024-03-17T00:40:05;101570.44;;;4.54;78.68
57234;BME280;43090;52.604;13.318;2024-03-17T00:42:31;101578.81;;;4.68;78.27
57234;BME280;43090;52.604;13.318;2024-03-17T00:44:58;101599.38;;;4.61;78.82
57234;BME280;43090;52.604;13.318;2024-03-17T00:47:25;101586.81;;;4.40;80.21
57234;BME280;43090;52.604;13.318;2024-03-17T00:49:51;101575.84;;;4.50;80.04
57234;BME280;43090;52.604;13.318;2024-03-17T00:52:19;101577.00;;;4.42;79.70
57234;BME280;43090;52.604;13.318;2024-03-17T00:54:46;101596.94;;;4.54;79.92
57234;BME280;43090;52.604;13.318;2024-03-17T00:57:13;101595.38;;;4.48;80.57
57234;BME280;43090;52.604;13.318;2024-03-17T00:59:38;101601.47;;;4.52;79.60
57234;BME280;43090;52.604;13.318;2024-03-17T01:02:04;101604.25;;;4.47;81.66
57234;BME280;43090;52.604;13.318;2024-03-17T01:04:29;101584.53;;;4.56;81.00
57234;BME280;43090;52.604;13.318;2024-03-17T01:06:59;101592.63;;;4.23;80.95
57234;BME280;43090;52.604;13.318;2024-03-17T01:09:25;101586.69;;;4.14;81.10
57234;BME280;43090;52.604;13.318;2024-03-17T01:11:50;101590.75;;;4.26;80.39
57234;BME280;43090;52.604;13.318;2024-03-17T01:14:16;101578.41;;;4.25;80.41
57234;BME280;43090;52.604;13.318;2024-03-17T01:16:41;101594.31;;;4.25;81.16
57234;BME280;43090;52.604;13.318;2024-03-17T01:19:07;101567.66;;;4.02;82.01
57234;BME280;43090;52.604;13.318;2024-03-17T01:21:32;101566.94;;;4.25;81.07
57234;BME280;43090;52.604;13.318;2024-03-17T01:23:58;101597.88;;;4.24;81.50
57234;BME280;43090;52.604;13.318;2024-03-17T01:26:26;101559.97;;;4.21;83.14
57234;BME280;43090;52.604;13.318;2024-03-17T01:28:52;101558.78;;;4.31;82.38
57234;BME280;43090;52.604;13.318;2024-03-17T01:31:17;101593.56;;;4.48;81.51
57234;BME280;43090;52.604;13.318;2024-03-17T01:33:43;101600.53;;;4.53;82.96
57234;BME280;43090;52.604;13.318;2024-03-17T01:36:08;101569.38;;;4.31;82.21
57234;BME280;43090;52.604;13.318;2024-03-17T01:38:34;101570.41;;;4.27;83.14
57234;BME280;43090;52.604;13.318;2024-03-17T01:41:00;101571.03;;;4.35;81.57
57234;BME280;43090;52.604;13.318;2024-03-17T01:43:26;101590.22;;;4.43;82.67
57234;BME280;43090;52.604;13.318;2024-03-17T01:45:52;101596.69;;;4.34;82.03
57234;BME280;43090;52.604;13.318;2024-03-17T01:48:17;101558.03;;;4.27;81.81
57234;BME280;43090;52.604;13.318;2024-03-17T01:50:45;101597.03;;;4.24;82.81
57234;BME280;43090;52.604;13.318;2024-03-17T01:53:13;101571.19;;;4.30;82.01
57234;BME280;43090;52.604;13.318;2024-03-17T01:55:40;101589.75;;;4.30;83.70
57234;BME280;43090;52.604;13.318;2024-03-17T01:58:07;101564.75;;;4.38;82.29
57234;BME280;43090;52.604;13.318;2024-03-17T02:00:34;101597.25;;;4.44;83.68
57234;BME280;43090;52.604;13.318;2024-03-17T02:03:03;101594.41;;;4.50;82.22
57234;BME280;43090;52.604;13.318;2024-03-17T02:05:29;101603.03;;;4.57;80.87
57234;BME280;43090;52.604;13.318;2024-03-17T02:07:54;101603.22;;;4.51;80.91
57234;BME280;43090;52.604;13.318;2024-03-17T02:10:20;101598.22;;;4.42;81.52
57234;BME280;43090;52.604;13.318;2024-03-17T02:12:47;101610.47;;;4.46;81.33
57234;BME280;43090;52.604;13.318;2024-03-17T02:15:13;101598.72;;;4.26;81.80
57234;BME280;43090;52.604;13.318;2024-03-17T02:17:39;101614.00;;;4.16;82.40
57234;BME280;43090;52.604;13.318;2024-03-17T02:20:05;101598.59;;;4.29;81.53
57234;BME280;43090;52.604;13.318;2024-03-17T02:22:40;101611.22;;;4.21;82.32
57234;BME280;43090;52.604;13.318;2024-03-17T02:25:05;101589.69;;;4.04;83.47
57234;BME280;43090;52.604;13.318;2024-03-17T02:27:37;101594.66;;;4.14;82.54
57234;BME280;43090;52.604;13.318;2024-03-17T02:30:03;101607.53;;;4.27;82.69
57234;BME280;43090;52.604;13.318;2024-03-17T02:46:15;101586.47;;;2.96;91.84
57234;BME280;43090;52.604;13.318;2024-03-17T02:48:42;101590.34;;;3.16;90.53
57234;BME280;43090;52.604;13.318;2024-03-17T02:51:16;101602.59;;;3.53;89.17
57234;BME280;43090;52.604;13.318;2024-03-17T02:53:43;101596.13;;;3.63;87.71
57234;BME280;43090;52.604;13.318;2024-03-17T02:56:10;101593.38;;;3.68;87.10
57234;BME280;43090;52.604;13.318;2024-03-17T02:58:37;101595.19;;;3.66;87.44
57234;BME280;43090;52.604;13.318;2024-03-17T03:01:04;101579.72;;;3.82;87.00
57234;BME280;43090;52.604;13.318;2024-03-17T03:03:31;101567.09;;;3.60;86.37
57234;BME280;43090;52.604;13.318;2024-03-17T03:05:56;101571.63;;;3.87;86.62
57234;BME280;43090;52.604;13.318;2024-03-17T03:08:22;101561.16;;;3.82;85.52
57234;BME280;43090;52.604;13.318;2024-03-17T03:10:49;101586.84;;;3.80;86.21
57234;BME280;43090;52.604;13.318;2024-03-17T03:13:14;101591.53;;;3.70;86.81
57234;BME280;43090;52.604;13.318;2024-03-17T03:15:40;101580.72;;;3.78;87.44
57234;BME280;43090;52.604;13.318;2024-03-17T03:18:05;101596.00;;;3.98;86.02
57234;BME280;43090;52.604;13.318;2024-03-17T03:20:31;101595.66;;;3.80;85.86
57234;BME280;43090;52.604;13.318;2024-03-17T03:22:56;101605.72;;;3.99;86.37
57234;BME280;43090;52.604;13.318;2024-03-17T03:25:22;101617.41;;;3.92;86.35
57234;BME280;43090;52.604;13.318;2024-03-17T03:27:48;101591.31;;;3.78;85.33
57234;BME280;43090;52.604;13.318;2024-03-17T03:30:13;101604.28;;;3.87;84.88
57234;BME280;43090;52.604;13.318;2024-03-17T03:32:41;101594.00;;;3.76;84.80
57234;BME280;43090;52.604;13.318;2024-03-17T03:35:08;101613.50;;;3.74;84.76
57234;BME280;43090;52.604;13.318;2024-03-17T03:37:34;101579.91;;;3.44;86.08
57234;BME280;43090;52.604;13.318;2024-03-17T03:40:00;101620.75;;;3.67;86.25
57234;BME280;43090;52.604;13.318;2024-03-17T03:42:25;101584.50;;;3.38;86.50
57234;BME280;43090;52.604;13.318;2024-03-17T03:44:51;101610.22;;;3.65;86.30
57234;BME280;43090;52.604;13.318;2024-03-17T03:47:16;101580.84;;;3.42;86.37
57234;BME280;43090;52.604;13.318;2024-03-17T03:49:42;101586.44;;;3.31;86.90
57234;BME280;43090;52.604;13.318;2024-03-17T03:52:08;101606.50;;;3.40;88.64
57234;BME280;43090;52.604;13.318;2024-03-17T03:54:34;101618.03;;;3.37;88.55
57234;BME280;43090;52.604;13.318;2024-03-17T03:57:01;101624.97;;;3.41;87.47
57234;BME280;43090;52.604;13.318;2024-03-17T03:59:26;101628.25;;;3.51;86.65
57234;BME280;43090;52.604;13.318;2024-03-17T04:01:52;101625.56;;;3.20;87.35
57234;BME280;43090;52.604;13.318;2024-03-17T04:04:17;101613.16;;;3.22;87.85
57234;BME280;43090;52.604;13.318;2024-03-17T04:06:43;101608.88;;;3.16;87.74
57234;BME280;43090;52.604;13.318;2024-03-17T04:09:11;101623.63;;;3.26;89.84
57234;BME280;43090;52.604;13.318;2024-03-17T04:11:39;101603.59;;;3.16;89.33
57234;BME280;43090;52.604;13.318;2024-03-17T04:14:05;101604.19;;;3.27;89.49
57234;BME280;43090;52.604;13.318;2024-03-17T04:16:30;101623.00;;;3.49;90.25
57234;BME280;43090;52.604;13.318;2024-03-17T04:18:57;101604.44;;;3.51;89.85
57234;BME280;43090;52.604;13.318;2024-03-17T04:21:22;101609.47;;;3.27;90.14
57234;BME280;43090;52.604;13.318;2024-03-17T04:23:48;101613.63;;;3.38;89.36
57234;BME280;43090;52.604;13.318;2024-03-17T04:26:13;101618.97;;;3.34;89.58
57234;BME280;43090;52.604;13.318;2024-03-17T04:28:40;101632.75;;;3.47;90.62
57234;BME280;43090;52.604;13.318;2024-03-17T04:31:06;101612.28;;;3.54;89.81
57234;BME280;43090;52.604;13.318;2024-03-17T04:33:34;101627.00;;;3.64;89.23
57234;BME280;43090;52.604;13.318;2024-03-17T04:36:01;101622.97;;;3.51;89.07
57234;BME280;43090;52.604;13.318;2024-03-17T04:38:28;101617.66;;;3.51;88.66
57234;BME280;43090;52.604;13.318;2024-03-17T04:40:53;101620.63;;;3.40;88.77
57234;BME280;43090;52.604;13.318;2024-03-17T04:43:32;101627.50;;;3.46;89.07
57234;BME280;43090;52.604;13.318;2024-03-17T04:46:03;101641.81;;;3.39;89.38
57234;BME280;43090;52.604;13.318;2024-03-17T04:48:30;101638.19;;;3.43;88.74
57234;BME280;43090;52.604;13.318;2024-03-17T04:50:57;101643.50;;;3.43;87.98
57234;BME280;43090;52.604;13.318;2024-03-17T04:53:22;101641.25;;;3.27;88.22
57234;BME280;43090;52.604;13.318;2024-03-17T04:55:48;101639.88;;;3.11;89.12
57234;BME280;43090;52.604;13.318;2024-03-17T04:58:13;101646.06;;;3.11;89.94
57234;BME280;43090;52.604;13.318;2024-03-17T05:00:39;101634.75;;;3.05;89.81
57234;BME280;43090;52.604;13.318;2024-03-17T05:03:04;101642.53;;;3.11;89.63
57234;BME280;43090;52.604;13.318;2024-03-17T05:05:30;101625.41;;;2.91;93.12
57234;BME280;43090;52.604;13.318;2024-03-17T05:07:55;101643.38;;;3.13;91.49
57234;BME280;43090;52.604;13.318;2024-03-17T05:10:21;101636.53;;;3.04;91.12
57234;BME280;43090;52.604;13.318;2024-03-17T05:12:46;101639.03;;;3.10;92.17
57234;BME280;43090;52.604;13.318;2024-03-17T05:15:13;101659.81;;;3.26;92.28
57234;BME280;43090;52.604;13.318;2024-03-17T05:17:38;101640.34;;;2.94;93.06
57234;BME280;43090;52.604;13.318;2024-03-17T05:20:04;101642.81;;;3.00;92.27
57234;BME280;43090;52.604;13.318;2024-03-17T05:22:31;101628.88;;;2.93;91.61
57234;BME280;43090;52.604;13.318;2024-03-17T05:24:56;101628.75;;;2.98;90.95
57234;BME280;43090;52.604;13.318;2024-03-17T05:27:22;101626.94;;;3.00;91.01
57234;BME280;43090;52.604;13.318;2024-03-17T05:29:47;101633.56;;;2.80;91.30
57234;BME280;43090;52.604;13.318;2024-03-17T05:32:13;101619.69;;;2.72;92.13
57234;BME280;43090;52.604;13.318;2024-03-17T05:34:38;101652.13;;;2.79;92.29
57234;BME280;43090;52.604;13.318;2024-03-17T05:37:04;101643.31;;;2.80;92.09
57234;BME280;43090;52.604;13.318;2024-03-17T05:39:29;101633.63;;;2.79;91.44
57234;BME280;43090;52.604;13.318;2024-03-17T05:41:55;101667.16;;;2.78;92.55
57234;BME280;43090;52.604;13.318;2024-03-17T05:44:23;101657.28;;;2.85;92.42
57234;BME280;43090;52.604;13.318;2024-03-17T05:46:48;101647.56;;;2.86;92.38
57234;BME280;43090;52.604;13.318;2024-03-17T05:49:14;101658.91;;;2.91;93.39
57234;BME280;43090;52.604;13.318;2024-03-17T05:51:39;101660.59;;;2.93;92.78
57234;BME280;43090;52.604;13.318;2024-03-17T05:54:05;101667.41;;;3.04;92.47
57234;BME280;43090;52.604;13.318;2024-03-17T05:56:31;101641.72;;;2.73;92.61
57234;BME280;43090;52.604;13.318;2024-03-17T05:58:56;101651.78;;;2.94;94.00
57234;BME280;43090;52.604;13.318;2024-03-17T06:01:22;101664.09;;;2.95;93.35
57234;BME280;43090;52.604;13.318;2024-03-17T06:03:48;101657.50;;;3.12;92.44
57234;BME280;43090;52.604;13.318;2024-03-17T06:06:13;101675.53;;;2.96;94.07
57234;BME280;43090;52.604;13.318;2024-03-17T06:08:39;101684.47;;;2.92;94.76
57234;BME280;43090;52.604;13.318;2024-03-17T06:11:05;101668.50;;;2.95;93.66
57234;BME280;43090;52.604;13.318;2024-03-17T06:13:30;101706.16;;;3.06;94.64
57234;BME280;43090;52.604;13.318;2024-03-17T06:15:56;101692.66;;;3.17;93.28
57234;BME280;43090;52.604;13.318;2024-03-17T06:18:26;101696.53;;;3.04;94.78
57234;BME280;43090;52.604;13.318;2024-03-17T06:20:52;101695.13;;;3.25;93.83
57234;BME280;43090;52.604;13.318;2024-03-17T06:23:17;101703.06;;;3.25;94.27
57234;BME280;43090;52.604;13.318;2024-03-17T06:25:48;101687.69;;;3.39;93.50
57234;BME280;43090;52.604;13.318;2024-03-17T06:28:16;101679.19;;;3.26;93.80
57234;BME280;43090;52.604;13.318;2024-03-17T06:30:43;101671.06;;;2.99;93.81
57234;BME280;43090;52.604;13.318;2024-03-17T06:33:11;101706.81;;;3.50;93.80
57234;BME280;43090;52.604;13.318;2024-03-17T06:35:37;101710.66;;;3.72;92.33
57234;BME280;43090;52.604;13.318;2024-03-17T06:38:02;101716.56;;;3.83;91.68
57234;BME280;43090;52.604;13.318;2024-03-17T06:40:30;101684.72;;;3.52;92.02
57234;BME280;43090;52.604;13.318;2024-03-17T06:42:58;101699.38;;;3.65;91.62
57234;BME280;43090;52.604;13.318;2024-03-17T06:45:24;101723.31;;;3.62;92.68
57234;BME280;43090;52.604;13.318;2024-03-17T06:47:49;101719.44;;;4.07;91.43
57234;BME280;43090;52.604;13.318;2024-03-17T06:50:15;101732.28;;;4.21;90.42
57234;BME280;43090;52.604;13.318;2024-03-17T06:52:41;101736.63;;;4.25;88.50
57234;BME280;43090;52.604;13.318;2024-03-17T06:55:06;101715.34;;;4.26;89.19
57234;BME280;43090;52.604;13.318;2024-03-17T06:57:33;101704.75;;;4.26;88.61
57234;BME280;43090;52.604;13.318;2024-03-17T07:00:02;101744.06;;;4.42;87.38
57234;BME280;43090;52.604;13.318;2024-03-17T07:02:32;101734.56;;;4.34;88.01
57234;BME280;43090;52.604;13.318;2024-03-17T07:04:58;101753.25;;;4.90;87.46
57234;BME280;43090;52.604;13.318;2024-03-17T07:07:26;101721.19;;;4.67;85.53
57234;BME280;43090;52.604;13.318;2024-03-17T07:09:52;101743.75;;;5.09;85.52
57234;BME280;43090;52.604;13.318;2024-03-17T07:12:18;101723.91;;;4.94;83.54
57234;BME280;43090;52.604;13.318;2024-03-17T07:14:44;101742.53;;;4.93;82.99
57234;BME280;43090;52.604;13.318;2024-03-17T07:17:10;101763.81;;;4.61;83.94
57234;BME280;43090;52.604;13.318;2024-03-17T07:19:35;101760.81;;;4.74;84.97
57234;BME280;43090;52.604;13.318;2024-03-17T07:22:02;101750.25;;;5.00;83.71
57234;BME280;43090;52.604;13.318;2024-03-17T07:24:29;101761.31;;;4.57;83.96
57234;BME280;43090;52.604;13.318;2024-03-17T07:26:55;101763.50;;;4.72;84.02
57234;BME280;43090;52.604;13.318;2024-03-17T07:29:20;101730.81;;;4.72;83.14
57234;BME280;43090;52.604;13.318;2024-03-17T07:31:46;101745.28;;;4.90;83.20
57234;BME280;43090;52.604;13.318;2024-03-17T07:34:12;101739.94;;;4.91;81.57
57234;BME280;43090;52.604;13.318;2024-03-17T07:36:41;101746.41;;;5.38;81.31
57234;BME280;43090;52.604;13.318;2024-03-17T07:39:06;101759.06;;;5.56;80.66
57234;BME280;43090;52.604;13.318;2024-03-17T07:41:35;101753.13;;;5.75;79.48
57234;BME280;43090;52.604;13.318;2024-03-17T07:44:00;101767.25;;;5.50;79.11
57234;BME280;43090;52.604;13.318;2024-03-17T07:46:26;101750.88;;;5.89;78.05
57234;BME280;43090;52.604;13.318;2024-03-17T07:48:51;101772.66;;;6.26;78.03
57234;BME280;43090;52.604;13.318;2024-03-17T07:51:17;101751.31;;;6.27;75.99
57234;BME280;43090;52.604;13.318;2024-03-17T07:53:44;101770.63;;;6.32;75.29
57234;BME280;43090;52.604;13.318;2024-03-17T07:56:11;101764.91;;;6.43;75.63
57234;BME280;43090;52.604;13.318;2024-03-17T07:58:39;101760.09;;;6.77;75.17
57234;BME280;43090;52.604;13.318;2024-03-17T08:01:11;101762.09;;;6.94;73.37
57234;BME280;43090;52.604;13.318;2024-03-17T08:03:39;101773.81;;;6.66;74.09
57234;BME280;43090;52.604;13.318;2024-03-17T08:06:06;101779.75;;;6.96;73.20
57234;BME280;43090;52.604;13.318;2024-03-17T08:08:33;101787.00;;;7.15;72.37
57234;BME280;43090;52.604;13.318;2024-03-17T08:10:59;101775.66;;;6.64;72.23
57234;BME280;43090;52.604;13.318;2024-03-17T08:13:25;101781.84;;;6.88;71.01
57234;BME280;43090;52.604;13.318;2024-03-17T08:15:58;101796.06;;;6.63;71.75
57234;BME280;43090;52.604;13.318;2024-03-17T08:18:24;101800.34;;;6.44;71.78
57234;BME280;43090;52.604;13.318;2024-03-17T08:20:50;101778.19;;;6.43;70.61
57234;BME280;43090;52.604;13.318;2024-03-17T08:23:16;101788.09;;;6.40;71.07
57234;BME280;43090;52.604;13.318;2024-03-17T08:25:42;101784.97;;;6.52;72.33
57234;BME280;43090;52.604;13.318;2024-03-17T08:28:07;101759.44;;;6.23;69.95
57234;BME280;43090;52.604;13.318;2024-03-17T08:30:33;101770.50;;;5.85;71.25
57234;BME280;43090;52.604;13.318;2024-03-17T08:33:00;101779.03;;;6.20;71.30
57234;BME280;43090;52.604;13.318;2024-03-17T08:35:25;101786.69;;;6.53;71.77
57234;BME280;43090;52.604;13.318;2024-03-17T08:37:51;101780.03;;;6.89;69.38
57234;BME280;43090;52.604;13.318;2024-03-17T08:40:20;101757.41;;;6.29;70.28
57234;BME280;43090;52.604;13.318;2024-03-17T08:42:45;101769.97;;;6.73;70.91
57234;BME280;43090;52.604;13.318;2024-03-17T08:45:11;101781.44;;;6.52;70.03
57234;BME280;43090;52.604;13.318;2024-03-17T08:47:36;101780.97;;;6.15;70.93
57234;BME280;43090;52.604;13.318;2024-03-17T08:50:02;101767.31;;;6.49;70.75
57234;BME280;43090;52.604;13.318;2024-03-17T08:52:33;101755.28;;;6.87;67.90
57234;BME280;43090;52.604;13.318;2024-03-17T08:54:58;101754.88;;;6.26;67.25
57234;BME280;43090;52.604;13.318;2024-03-17T08:57:25;101783.94;;;6.56;67.09
57234;BME280;43090;52.604;13.318;2024-03-17T08:59:50;101785.66;;;6.57;66.81
57234;BME280;43090;52.604;13.318;2024-03-17T09:02:22;101786.44;;;6.12;66.53
57234;BME280;43090;52.604;13.318;2024-03-17T09:04:48;101787.06;;;6.19;67.40
57234;BME280;43090;52.604;13.318;2024-03-17T09:07:14;101793.09;;;5.98;66.87
57234;BME280;43090;52.604;13.318;2024-03-17T09:09:42;101770.66;;;6.31;66.42
57234;BME280;43090;52.604;13.318;2024-03-17T09:12:08;101790.94;;;6.35;66.95
57234;BME280;43090;52.604;13.318;2024-03-17T09:14:34;101786.81;;;6.26;68.29
57234;BME280;43090;52.604;13.318;2024-03-17T09:17:00;101782.25;;;6.30;65.96
57234;BME280;43090;52.604;13.318;2024-03-17T09:19:26;101777.38;;;6.89;67.56
57234;BME280;43090;52.604;13.318;2024-03-17T09:21:55;101798.72;;;6.87;65.64
57234;BME280;43090;52.604;13.318;2024-03-17T09:24:20;101796.66;;;7.17;66.00
57234;BME280;43090;52.604;13.318;2024-03-17T09:26:46;101789.75;;;6.90;64.63
57234;BME280;43090;52.604;13.318;2024-03-17T09:29:13;101768.78;;;7.26;64.44
57234;BME280;43090;52.604;13.318;2024-03-17T09:31:41;101790.13;;;7.90;63.20
57234;BME280;43090;52.604;13.318;2024-03-17T09:34:07;101766.72;;;7.76;62.66
57234;BME280;43090;52.604;13.318;2024-03-17T09:36:32;101791.41;;;7.81;59.59
57234;BME280;43090;52.604;13.318;2024-03-17T09:38:58;101774.31;;;7.64;61.28
57234;BME280;43090;52.604;13.318;2024-03-17T09:41:25;101783.50;;;7.13;61.73
57234;BME280;43090;52.604;13.318;2024-03-17T09:43:56;101794.41;;;6.84;62.19
57234;BME280;43090;52.604;13.318;2024-03-17T09:46:25;101798.28;;;7.22;62.71
57234;BME280;43090;52.604;13.318;2024-03-17T09:48:55;101799.56;;;7.56;62.44
57234;BME280;43090;52.604;13.318;2024-03-17T09:51:25;101796.75;;;7.81;59.52
57234;BME280;43090;52.604;13.318;2024-03-17T09:53:51;101793.31;;;7.34;63.92
57234;BME280;43090;52.604;13.318;2024-03-17T09:56:19;101784.41;;;7.36;60.65
57234;BME280;43090;52.604;13.318;2024-03-17T09:58:46;101786.31;;;7.54;59.95
57234;BME280;43090;52.604;13.318;2024-03-17T10:01:12;101788.16;;;7.52;61.01
57234;BME280;43090;52.604;13.318;2024-03-17T10:03:47;101795.44;;;7.26;62.43
57234;BME280;43090;52.604;13.318;2024-03-17T10:06:25;101772.69;;;7.40;61.83
57234;BME280;43090;52.604;13.318;2024-03-17T10:08:54;101777.63;;;7.05;62.03
57234;BME280;43090;52.604;13.318;2024-03-17T10:11:21;101774.38;;;7.42;61.90
57234;BME280;43090;52.604;13.318;2024-03-17T10:14:07;101787.72;;;7.41;59.83
57234;BME280;43090;52.604;13.318;2024-03-17T10:16:37;101779.50;;;7.25;60.81
57234;BME280;43090;52.604;13.318;2024-03-17T10:19:10;101776.41;;;7.78;61.32
57234;BME280;43090;52.604;13.318;2024-03-17T10:21:37;101772.09;;;7.96;60.77
57234;BME280;43090;52.604;13.318;2024-03-17T10:24:07;101767.06;;;7.68;59.22
57234;BME280;43090;52.604;13.318;2024-03-17T10:26:46;101781.94;;;7.94;60.26
57234;BME280;43090;52.604;13.318;2024-03-17T10:29:24;101783.97;;;7.67;58.99
57234;BME280;43090;52.604;13.318;2024-03-17T10:31:51;101770.28;;;7.97;60.94
57234;BME280;43090;52.604;13.318;2024-03-17T10:34:17;101769.59;;;8.12;57.94
57234;BME280;43090;52.604;13.318;2024-03-17T10:36:45;101776.06;;;8.27;58.81
57234;BME280;43090;52.604;13.318;2024-03-17T10:39:26;101781.88;;;7.75;58.52
57234;BME280;43090;52.604;13.318;2024-03-17T10:42:02;101784.00;;;7.88;58.70
57234;BME280;43090;52.604;13.318;2024-03-17T10:44:32;101784.34;;;8.00;57.06
57234;BME280;43090;52.604;13.318;2024-03-17T10:47:00;101778.66;;;8.08;56.90
57234;BME280;43090;52.604;13.318;2024-03-17T10:49:36;101780.38;;;7.68;56.87
57234;BME280;43090;52.604;13.318;2024-03-17T10:52:07;101776.25;;;8.23;56.04
57234;BME280;43090;52.604;13.318;2024-03-17T10:54:34;101760.97;;;8.26;59.16
57234;BME280;43090;52.604;13.318;2024-03-17T10:59:52;101785.63;;;8.12;58.17
57234;BME280;43090;52.604;13.318;2024-03-17T11:02:21;101782.53;;;8.01;59.68
57234;BME280;43090;52.604;13.318;2024-03-17T11:04:51;101779.31;;;8.13;58.35
57234;BME280;43090;52.604;13.318;2024-03-17T11:07:18;101776.56;;;8.36;57.14
57234;BME280;43090;52.604;13.318;2024-03-17T11:09:45;101775.91;;;8.70;58.23
57234;BME280;43090;52.604;13.318;2024-03-17T11:17:48;101778.72;;;9.05;54.25
57234;BME280;43090;52.604;13.318;2024-03-17T11:20:24;101773.66;;;8.99;55.34
57234;BME280;43090;52.604;13.318;2024-03-17T11:22:55;101768.56;;;8.56;53.86
57234;BME280;43090;52.604;13.318;2024-03-17T11:28:06;101776.13;;;9.04;51.43
57234;BME280;43090;52.604;13.318;2024-03-17T11:38:59;101776.78;;;9.98;51.98
57234;BME280;43090;52.604;13.318;2024-03-17T11:46:56;101762.31;;;9.49;51.81
57234;BME280;43090;52.604;13.318;2024-03-17T11:51:51;101761.91;;;9.40;51.37
57234;BME280;43090;52.604;13.318;2024-03-17T11:54:19;101755.63;;;9.93;52.37
57234;BME280;43090;52.604;13.318;2024-03-17T11:56:47;101773.97;;;9.83;51.69
57234;BME280;43090;52.604;13.318;2024-03-17T11:59:25;101768.44;;;9.87;52.95
57234;BME280;43090;52.604;13.318;2024-03-17T12:01:51;101755.72;;;9.74;50.30
57234;BME280;43090;52.604;13.318;2024-03-17T12:04:19;101770.72;;;9.94;51.11
57234;BME280;43090;52.604;13.318;2024-03-17T12:06:49;101769.59;;;10.16;50.89
57234;BME280;43090;52.604;13.318;2024-03-17T12:09:23;101761.81;;;10.11;48.18
57234;BME280;43090;52.604;13.318;2024-03-17T12:12:08;101766.50;;;9.73;48.42
57234;BME280;43090;52.604;13.318;2024-03-17T12:14:35;101760.91;;;9.77;50.60
57234;BME280;43090;52.604;13.318;2024-03-17T12:17:01;101765.94;;;9.12;48.88
57234;BME280;43090;52.604;13.318;2024-03-17T12:19:27;101755.63;;;9.76;50.51
57234;BME280;43090;52.604;13.318;2024-03-17T12:21:55;101762.91;;;10.25;47.80
57234;BME280;43090;52.604;13.318;2024-03-17T12:24:23;101755.97;;;10.21;50.31
57234;BME280;43090;52.604;13.318;2024-03-17T12:26:50;101762.13;;;10.05;47.87
57234;BME280;43090;52.604;13.318;2024-03-17T12:29:30;101755.00;;;9.88;48.55
57234;BME280;43090;52.604;13.318;2024-03-17T12:32:02;101747.06;;;9.69;47.77
57234;BME280;43090;52.604;13.318;2024-03-17T12:34:30;101739.72;;;9.38;47.68
57234;BME280;43090;52.604;13.318;2024-03-17T12:36:57;101736.28;;;9.36;51.48
57234;BME280;43090;52.604;13.318;2024-03-17T12:39:25;101738.59;;;9.24;51.70
57234;BME280;43090;52.604;13.318;2024-03-17T12:42:09;101743.00;;;8.89;48.53
57234;BME280;43090;52.604;13.318;2024-03-17T12:44:36;101743.06;;;8.87;50.27
57234;BME280;43090;52.604;13.318;2024-03-17T12:47:04;101733.63;;;9.16;49.93
57234;BME280;43090;52.604;13.318;2024-03-17T12:49:31;101741.75;;;9.32;49.88
57234;BME280;43090;52.604;13.318;2024-03-17T12:51:57;101744.16;;;8.83;49.44
57234;BME280;43090;52.604;13.318;2024-03-17T12:54:25;101726.69;;;9.31;50.96
57234;BME280;43090;52.604;13.318;2024-03-17T12:57:03;101735.94;;;9.24;49.55
57234;BME280;43090;52.604;13.318;2024-03-17T12:59:50;101734.88;;;9.46;51.34
57234;BME280;43090;52.604;13.318;2024-03-17T13:02:34;101746.81;;;9.02;49.33
57234;BME280;43090;52.604;13.318;2024-03-17T13:07:31;101750.22;;;8.87;50.69
57234;BME280;43090;52.604;13.318;2024-03-17T13:09:57;101739.63;;;8.85;49.61
57234;BME280;43090;52.604;13.318;2024-03-17T13:12:22;101738.88;;;9.00;49.24
57234;BME280;43090;52.604;13.318;2024-03-17T13:14:48;101739.69;;;8.83;48.71
57234;BME280;43090;52.604;13.318;2024-03-17T13:17:15;101741.09;;;9.10;49.22
57234;BME280;43090;52.604;13.318;2024-03-17T13:19:47;101730.56;;;9.07;47.77
57234;BME280;43090;52.604;13.318;2024-03-17T13:22:13;101726.22;;;9.76;48.66
57234;BME280;43090;52.604;13.318;2024-03-17T13:24:39;101732.75;;;9.70;47.73
57234;BME280;43090;52.604;13.318;2024-03-17T13:27:05;101730.69;;;9.58;47.27
57234;BME280;43090;52.604;13.318;2024-03-17T13:29:32;101737.88;;;9.21;46.03
57234;BME280;43090;52.604;13.318;2024-03-17T13:32:04;101736.88;;;9.93;47.75
57234;BME280;43090;52.604;13.318;2024-03-17T13:34:30;101724.75;;;10.04;48.35